createdAt,value
2022-10-04T00:01:11.862Z,5.22
2022-10-04T00:04:20.171Z,5.03
2022-10-04T00:07:26.558Z,4.43
2022-10-04T00:10:34.878Z,3.65
2022-10-04T00:13:38.648Z,2.28
2022-10-04T00:16:44.284Z,4.63
2022-10-04T00:19:49.984Z,2.70
2022-10-04T00:23:26.401Z,3.10
2022-10-04T00:26:28.704Z,4.93
2022-10-04T00:29:34.922Z,6.25
2022-10-04T00:32:40.775Z,2.85
2022-10-04T00:35:48.942Z,1.55
2022-10-04T00:39:05.037Z,4.88
2022-10-04T00:42:17.965Z,6.28
2022-10-04T00:45:36.900Z,6.85
2022-10-04T00:48:47.886Z,6.80
2022-10-04T00:52:15.017Z,3.47
2022-10-04T00:55:44.945Z,5.55
2022-10-04T00:59:29.165Z,5.53
2022-10-04T01:02:46.714Z,2.25
2022-10-04T01:05:55.993Z,2.50
2022-10-04T01:09:05.857Z,4.63
2022-10-04T01:12:19.166Z,6.13
2022-10-04T01:15:42.997Z,2.70
2022-10-04T01:18:46.928Z,3.28
2022-10-04T01:22:15.340Z,3.55
2022-10-04T01:25:52.410Z,5.25
2022-10-04T01:28:56.612Z,2.78
2022-10-04T01:32:00.575Z,2.40
2022-10-04T01:35:07.572Z,4.05
2022-10-04T01:38:13.334Z,3.63
2022-10-04T01:41:20.457Z,2.13
2022-10-04T01:44:37.433Z,3.63
2022-10-04T01:47:49.533Z,3.15
2022-10-04T01:51:05.062Z,2.28
2022-10-04T01:54:16.075Z,6.82
2022-10-04T01:57:34.543Z,6.05
2022-10-04T02:00:49.861Z,4.18
2022-10-04T02:04:02.179Z,2.53
2022-10-04T02:07:12.748Z,5.30
2022-10-04T02:10:21.108Z,4.43
2022-10-04T02:13:30.310Z,3.60
2022-10-04T02:16:38.662Z,4.05
2022-10-04T02:19:43.508Z,3.38
2022-10-04T02:22:49.726Z,5.47
2022-10-04T02:25:52.880Z,2.33
2022-10-04T02:28:55.048Z,6.40
2022-10-04T02:32:16.253Z,2.40
2022-10-04T02:35:20.111Z,4.40
2022-10-04T02:38:32.282Z,1.67
2022-10-04T02:41:49.427Z,2.85
2022-10-04T02:45:00.483Z,2.63
2022-10-04T02:48:14.445Z,4.40
2022-10-04T02:51:33.621Z,4.32
2022-10-04T02:57:58.666Z,6.50
2022-10-04T03:01:02.079Z,7.75
2022-10-04T03:04:04.774Z,11.27
2022-10-04T03:07:09.570Z,4.10
2022-10-04T03:10:13.721Z,5.82
2022-10-04T03:13:18.115Z,5.30
2022-10-04T03:16:21.948Z,5.60
2022-10-04T03:19:27.454Z,10.90
2022-10-04T03:22:29.565Z,2.67
2022-10-04T03:25:45.471Z,3.90
2022-10-04T03:28:48.702Z,3.72
2022-10-04T03:31:57.605Z,3.80
2022-10-04T03:35:03.174Z,3.40
2022-10-04T03:38:09.285Z,2.60
2022-10-04T03:41:14.015Z,6.18
2022-10-04T03:44:18.979Z,4.82
2022-10-04T03:47:26.899Z,3.92
2022-10-04T03:50:34.389Z,7.22
2022-10-04T03:53:43.624Z,8.95
2022-10-04T03:56:47.495Z,6.45
2022-10-04T03:59:51.259Z,3.88
2022-10-04T04:02:59.908Z,3.55
2022-10-04T04:06:09.873Z,4.97
2022-10-04T04:09:39.453Z,5.10
2022-10-04T04:12:48.010Z,4.40
2022-10-04T04:18:58.953Z,5.07
2022-10-04T04:22:01.127Z,5.28
2022-10-04T04:25:08.457Z,5.00
2022-10-04T04:28:29.037Z,7.00
2022-10-04T04:31:51.043Z,3.90
2022-10-04T04:34:54.176Z,10.63
2022-10-04T04:38:05.139Z,4.97
2022-10-04T04:41:10.697Z,11.98
2022-10-04T04:44:18.358Z,4.50
2022-10-04T04:47:26.583Z,6.83
2022-10-04T04:50:41.299Z,5.32
2022-10-04T04:53:43.602Z,3.95
2022-10-04T04:56:49.429Z,8.75
2022-10-04T04:59:59.301Z,7.97
2022-10-04T05:03:03.776Z,5.47
2022-10-04T05:06:24.018Z,5.65
2022-10-04T05:09:28.922Z,5.35
2022-10-04T05:12:32.665Z,10.38
2022-10-04T05:15:41.081Z,4.95
2022-10-04T05:18:44.091Z,5.03
2022-10-04T05:21:49.688Z,9.52
2022-10-04T05:24:59.653Z,7.10
2022-10-04T05:28:02.413Z,7.43
2022-10-04T05:31:59.647Z,5.55
2022-10-04T05:35:04.353Z,5.85
2022-10-04T05:38:15.633Z,9.90
2022-10-04T05:41:24.213Z,4.07
2022-10-04T05:44:37.649Z,8.43
2022-10-04T05:47:41.144Z,6.07
2022-10-04T05:50:44.368Z,3.72
2022-10-04T05:53:47.215Z,6.63
2022-10-04T05:57:02.049Z,4.43
2022-10-04T06:00:13.817Z,3.47
2022-10-04T06:03:49.432Z,5.93
2022-10-04T06:06:58.403Z,5.35
2022-10-04T06:10:39.744Z,2.72
2022-10-04T06:14:09.322Z,2.15
2022-10-04T06:17:30.673Z,1.60
2022-10-04T06:20:44.828Z,1.85
2022-10-04T06:24:14.690Z,1.15
2022-10-04T06:27:45.628Z,1.02
2022-10-04T06:30:56.691Z,1.60
2022-10-04T06:34:19.903Z,4.35
2022-10-04T06:37:31.019Z,2.00
2022-10-04T06:40:48.705Z,2.47
2022-10-04T06:44:04.689Z,1.55
2022-10-04T06:47:20.158Z,3.03
2022-10-04T06:50:38.637Z,4.18
2022-10-04T06:54:02.295Z,2.47
2022-10-04T06:57:23.685Z,1.95
2022-10-04T07:00:35.265Z,2.78
2022-10-04T07:03:54.670Z,1.85
2022-10-04T07:07:25.478Z,1.45
2022-10-04T07:10:33.592Z,1.70
2022-10-04T07:13:49.018Z,2.20
2022-10-04T07:16:56.518Z,1.65
2022-10-04T07:20:01.897Z,3.38
2022-10-04T07:23:34.553Z,2.72
2022-10-04T07:26:47.491Z,5.30
2022-10-04T07:29:55.470Z,5.07
2022-10-04T07:33:01.555Z,4.60
2022-10-04T07:36:17.590Z,3.00
2022-10-04T07:39:33.641Z,4.07
2022-10-04T07:42:44.512Z,2.58
2022-10-04T07:45:49.451Z,5.20
2022-10-04T07:48:55.563Z,5.05
2022-10-04T07:52:16.683Z,2.65
2022-10-04T07:55:28.856Z,2.13
2022-10-04T08:01:19.624Z,1.95
2022-10-04T08:04:46.527Z,8.10
2022-10-04T08:08:16.823Z,1.52
2022-10-04T08:11:44.700Z,1.75
2022-10-04T08:15:17.243Z,2.85
2022-10-04T08:18:34.639Z,1.88
2022-10-04T08:21:56.975Z,1.88
2022-10-04T08:25:26.932Z,4.22
2022-10-04T08:29:19.925Z,2.88
2022-10-04T08:32:24.853Z,1.83
2022-10-04T08:35:36.516Z,2.28
2022-10-04T08:38:38.718Z,2.67
2022-10-04T08:42:24.819Z,1.83
2022-10-04T08:45:58.331Z,2.08
2022-10-04T08:49:14.428Z,3.03
2022-10-04T08:52:41.043Z,1.67
2022-10-04T08:56:18.396Z,3.70
2022-10-04T08:59:46.727Z,2.25
2022-10-04T09:03:38.390Z,1.98
2022-10-04T09:07:03.578Z,2.60
2022-10-04T09:10:36.437Z,4.60
2022-10-04T09:13:57.623Z,1.23
2022-10-04T09:17:21.997Z,3.00
2022-10-04T09:20:53.684Z,2.00
2022-10-04T09:24:14.398Z,4.50
2022-10-04T09:27:54.630Z,9.18
2022-10-04T09:31:15.559Z,4.45
2022-10-04T09:34:55.028Z,3.85
2022-10-04T09:38:25.199Z,2.03
2022-10-04T09:41:52.534Z,1.95
2022-10-04T09:45:20.480Z,5.15
2022-10-04T09:48:37.770Z,1.77
2022-10-04T09:52:02.859Z,1.05
2022-10-04T09:55:42.798Z,5.22
2022-10-04T09:58:58.635Z,1.40
2022-10-04T10:02:26.703Z,0.85
2022-10-04T10:05:49.934Z,2.88
2022-10-04T10:09:10.092Z,1.60
2022-10-04T10:12:48.129Z,1.52
2022-10-04T10:16:08.732Z,3.28
2022-10-04T10:19:35.099Z,1.60
2022-10-04T10:22:55.195Z,1.45
2022-10-04T10:26:24.173Z,4.40
2022-10-04T10:29:55.455Z,1.65
2022-10-04T10:33:26.932Z,1.50
2022-10-04T10:36:34.856Z,1.92
2022-10-04T10:40:16.897Z,2.50
2022-10-04T10:43:41.544Z,2.03
2022-10-04T10:47:11.552Z,1.02
2022-10-04T10:51:04.452Z,3.03
2022-10-04T10:54:25.448Z,1.60
2022-10-04T10:57:45.722Z,2.47
2022-10-04T11:01:31.140Z,2.63
2022-10-04T11:04:38.663Z,1.20
2022-10-04T11:07:56.412Z,2.10
2022-10-04T11:11:15.068Z,1.20
2022-10-04T11:15:08.252Z,0.98
2022-10-04T11:18:34.731Z,2.72
2022-10-04T11:21:51.465Z,1.20
2022-10-04T11:25:08.490Z,1.27
2022-10-04T11:28:17.016Z,1.52
2022-10-04T11:31:47.075Z,7.22
2022-10-04T11:35:12.135Z,2.35
2022-10-04T11:38:31.413Z,1.58
2022-10-04T11:42:41.680Z,1.42
2022-10-04T11:46:16.447Z,0.93
2022-10-04T11:49:21.241Z,1.35
2022-10-04T11:53:03.325Z,0.70
2022-10-04T11:56:29.862Z,1.50
2022-10-04T11:59:40.868Z,1.40
2022-10-04T12:03:10.994Z,2.47
2022-10-04T12:06:50.482Z,1.58
2022-10-04T12:10:04.509Z,1.00
2022-10-04T12:13:34.731Z,2.47
2022-10-04T12:16:49.218Z,1.45
2022-10-04T12:20:34.389Z,1.98
2022-10-04T12:24:03.563Z,1.10
2022-10-04T12:27:28.747Z,1.75
2022-10-04T12:30:34.561Z,1.17
2022-10-04T12:33:54.227Z,0.80
2022-10-04T12:37:18.173Z,4.35
2022-10-04T12:40:26.156Z,5.53
2022-10-04T12:43:46.740Z,2.17
2022-10-04T12:46:49.741Z,2.05
2022-10-04T12:49:57.935Z,0.70
2022-10-04T12:53:14.800Z,2.40
2022-10-04T12:56:29.416Z,0.80
2022-10-04T12:59:37.074Z,2.78
2022-10-04T13:03:19.183Z,1.57
2022-10-04T13:06:55.791Z,0.88
2022-10-04T13:10:25.096Z,2.78
2022-10-04T13:13:47.180Z,1.55
2022-10-04T13:20:23.137Z,2.35
2022-10-04T13:23:43.412Z,2.95
2022-10-04T13:27:03.619Z,0.85
2022-10-04T13:30:26.503Z,1.30
2022-10-04T13:33:46.375Z,2.92
2022-10-04T13:37:15.133Z,1.25
2022-10-04T13:40:30.291Z,2.70
2022-10-04T13:44:01.655Z,3.45
2022-10-04T13:47:25.278Z,2.13
2022-10-04T13:50:43.662Z,2.55
2022-10-04T13:54:36.895Z,1.65
2022-10-04T13:58:11.186Z,1.90
2022-10-04T14:01:41.474Z,3.75
2022-10-04T14:05:16.095Z,3.67
2022-10-04T14:08:50.850Z,2.92
2022-10-04T14:12:16.637Z,1.95
2022-10-04T14:15:33.527Z,1.05
2022-10-04T14:19:05.293Z,1.93
2022-10-04T14:22:26.295Z,3.67
2022-10-04T14:25:43.176Z,2.60
2022-10-04T14:28:58.370Z,2.15
2022-10-04T14:32:20.933Z,4.07
2022-10-04T14:35:48.830Z,3.22
2022-10-04T14:39:03.260Z,1.60
2022-10-04T14:42:48.740Z,8.63
2022-10-04T14:46:13.758Z,2.50
2022-10-04T14:49:36.170Z,4.72
2022-10-04T14:53:01.346Z,2.45
2022-10-04T14:56:17.186Z,3.15
2022-10-04T14:59:31.742Z,5.85
2022-10-04T15:02:33.670Z,1.63
2022-10-04T15:05:54.962Z,7.97
2022-10-04T15:09:12.042Z,13.07
2022-10-04T15:12:58.617Z,3.28
2022-10-04T15:16:28.697Z,7.90
2022-10-04T15:19:49.907Z,2.75
2022-10-04T15:23:08.098Z,9.48
2022-10-04T15:26:19.018Z,3.40
2022-10-04T15:29:31.926Z,11.07
2022-10-04T15:32:45.888Z,1.88
2022-10-04T15:36:39.845Z,2.80
2022-10-04T15:40:28.496Z,3.10
2022-10-04T15:43:32.256Z,3.30
2022-10-04T15:46:45.149Z,2.17
2022-10-04T15:49:57.366Z,5.40
2022-10-04T15:53:39.355Z,4.85
2022-10-04T15:56:41.795Z,3.08
2022-10-04T15:59:55.744Z,3.53
2022-10-04T16:03:18.512Z,2.47
2022-10-04T16:06:26.478Z,5.25
2022-10-04T16:09:49.912Z,3.00
2022-10-04T16:13:14.627Z,6.82
2022-10-04T16:16:21.580Z,5.72
2022-10-04T16:19:48.121Z,4.15
2022-10-04T16:23:28.598Z,9.27
2022-10-04T16:26:30.495Z,3.35
2022-10-04T16:30:29.430Z,2.95
2022-10-04T16:33:51.654Z,5.07
2022-10-04T16:37:26.299Z,1.83
2022-10-04T16:40:38.416Z,3.42
2022-10-04T16:43:54.405Z,2.33
2022-10-04T16:47:02.160Z,4.18
2022-10-04T16:50:06.811Z,4.32
2022-10-04T16:53:27.118Z,5.22
2022-10-04T16:56:34.934Z,7.40
2022-10-04T16:59:37.105Z,3.97
2022-10-04T17:03:01.321Z,3.67
2022-10-04T17:06:14.341Z,4.93
2022-10-04T17:09:27.616Z,7.20
2022-10-04T17:13:07.256Z,9.68
2022-10-04T17:16:36.546Z,6.85
2022-10-04T17:19:54.253Z,6.63
2022-10-04T17:23:18.074Z,5.55
2022-10-04T17:26:30.005Z,18.75
2022-10-04T17:29:58.508Z,10.48
2022-10-04T17:33:18.045Z,10.52
2022-10-04T17:36:28.804Z,13.55
2022-10-04T17:39:33.617Z,6.25
2022-10-04T17:43:03.176Z,6.03
2022-10-04T17:46:28.216Z,11.90
2022-10-04T17:50:06.046Z,10.27
2022-10-04T17:53:42.253Z,10.52
2022-10-04T17:56:59.115Z,9.73
2022-10-04T18:00:10.341Z,8.00
2022-10-04T18:03:19.431Z,9.45
2022-10-04T18:06:43.362Z,9.88
2022-10-04T18:09:49.275Z,10.88
2022-10-04T18:12:56.115Z,9.60
2022-10-04T18:16:14.604Z,13.48
2022-10-04T18:19:49.609Z,15.45
2022-10-04T18:23:14.064Z,8.63
2022-10-04T18:26:18.534Z,11.77
2022-10-04T18:29:36.323Z,10.43
2022-10-04T18:32:38.689Z,21.67
2022-10-04T18:36:09.461Z,8.65
2022-10-04T18:39:11.444Z,13.35
2022-10-04T18:42:39.622Z,10.40
2022-10-04T18:46:23.251Z,15.82
2022-10-04T18:49:30.543Z,12.98
2022-10-04T18:53:00.399Z,8.30
2022-10-04T18:56:08.994Z,16.17
2022-10-04T18:59:50.926Z,13.07
2022-10-04T19:03:04.544Z,10.07
2022-10-04T19:06:15.693Z,9.40
2022-10-04T19:09:26.830Z,16.02
2022-10-04T19:12:54.867Z,11.82
2022-10-04T19:15:57.200Z,20.33
2022-10-04T19:19:27.707Z,19.77
2022-10-04T19:22:30.890Z,15.70
2022-10-04T19:25:35.512Z,17.00
2022-10-04T19:28:39.537Z,12.45
2022-10-04T19:32:19.909Z,18.33
2022-10-04T19:38:55.786Z,31.85
2022-10-04T19:42:00.619Z,30.17
2022-10-04T19:45:16.432Z,35.35
2022-10-04T19:48:25.822Z,18.52
2022-10-04T19:51:45.865Z,19.30
2022-10-04T19:54:56.947Z,23.52
2022-10-04T19:58:16.911Z,16.23
2022-10-04T20:01:23.305Z,13.68
2022-10-04T20:04:38.656Z,20.67
2022-10-04T20:07:41.384Z,17.30
2022-10-04T20:10:44.435Z,13.90
2022-10-04T20:14:09.462Z,14.65
2022-10-04T20:17:30.596Z,28.52
2022-10-04T20:20:41.184Z,44.50
2022-10-04T20:23:48.780Z,39.40
2022-10-04T20:27:01.609Z,40.03
2022-10-04T20:30:14.356Z,33.67
2022-10-04T20:33:46.580Z,33.30
2022-10-04T20:36:51.689Z,24.48
2022-10-04T20:39:56.718Z,19.08
2022-10-04T20:43:14.137Z,25.35
2022-10-04T20:46:24.138Z,29.95
2022-10-04T20:49:27.473Z,34.10
2022-10-04T20:52:31.835Z,40.00
2022-10-04T20:55:37.406Z,38.22
2022-10-04T20:58:40.655Z,39.28
2022-10-04T21:01:45.951Z,30.10
2022-10-04T21:04:52.097Z,23.83
2022-10-04T21:08:23.431Z,17.17
2022-10-04T21:11:44.318Z,19.42
2022-10-04T21:15:02.656Z,15.23
2022-10-04T21:18:11.318Z,16.50
2022-10-04T21:21:20.946Z,15.60
2022-10-04T21:24:40.007Z,18.50
2022-10-04T21:30:46.923Z,12.75
2022-10-04T21:33:51.228Z,11.23
2022-10-04T21:36:53.308Z,17.92
2022-10-04T21:39:56.240Z,11.95
2022-10-04T21:42:58.295Z,14.15
2022-10-04T21:46:00.610Z,12.25
2022-10-04T21:49:04.022Z,18.52
2022-10-04T21:52:06.242Z,12.50
2022-10-04T21:55:10.766Z,15.38
2022-10-04T21:58:13.029Z,17.15
2022-10-04T22:01:15.259Z,18.33
2022-10-04T22:04:17.534Z,19.50
2022-10-04T22:07:19.569Z,11.23
2022-10-04T22:10:21.781Z,11.93
2022-10-04T22:13:24.017Z,11.18
2022-10-04T22:16:26.774Z,9.25
2022-10-04T22:19:28.793Z,6.32
2022-10-04T22:22:34.271Z,10.32
2022-10-04T22:25:40.309Z,12.65
2022-10-04T22:28:45.480Z,9.13
2022-10-04T22:31:51.194Z,9.15
2022-10-04T22:35:01.172Z,8.20
2022-10-04T22:38:08.442Z,8.10
2022-10-04T22:41:14.354Z,11.73
2022-10-04T22:44:18.573Z,10.68
2022-10-04T22:47:20.691Z,7.28
2022-10-04T22:50:27.837Z,9.38
2022-10-04T22:53:29.953Z,7.60
2022-10-04T22:56:32.076Z,7.13
2022-10-04T22:59:40.592Z,11.02
2022-10-04T23:05:45.926Z,6.57
2022-10-04T23:08:47.941Z,5.57
2022-10-04T23:11:50.011Z,6.78
2022-10-04T23:14:52.235Z,7.28
2022-10-04T23:17:55.662Z,4.15
2022-10-04T23:21:00.633Z,5.55
2022-10-04T23:24:17.724Z,8.02
2022-10-04T23:27:20.134Z,14.00
2022-10-04T23:30:22.861Z,6.72
2022-10-04T23:33:24.985Z,5.32
2022-10-04T23:36:27.093Z,3.78
2022-10-04T23:39:32.788Z,6.88
2022-10-04T23:42:36.914Z,4.88
2022-10-04T23:45:42.227Z,9.63
2022-10-04T23:48:44.742Z,4.13
2022-10-04T23:51:48.332Z,4.07
2022-10-04T23:54:52.775Z,4.93
2022-10-04T23:57:54.954Z,7.45
